sensor_id;sensor_type;location;lat;lon;timestamp;pressure;altitude;pressure_sealevel;temperature;humidity
18504;BME280;9381;54.244;10.074;2023-02-17T00:02:41;100962.50;;;9.11;100.00
18504;BME280;9381;54.244;10.074;2023-02-17T00:07:41;100966.47;;;9.09;100.00
18504;BME280;9381;54.244;10.074;2023-02-17T00:12:41;100957.97;;;9.12;100.00
18504;BME280;9381;54.244;10.074;2023-02-17T00:17:42;100949.88;;;9.12;100.00
18504;BME280;9381;54.244;10.074;2023-02-17T00:22:42;100941.53;;;9.07;100.00
18504;BME280;9381;54.244;10.074;2023-02-17T00:27:42;100925.16;;;9.15;100.00
18504;BME280;9381;54.244;10.074;2023-02-17T00:32:43;100920.53;;;8.96;100.00
18504;BME280;9381;54.244;10.074;2023-02-17T00:37:43;100919.31;;;9.05;100.00
18504;BME280;9381;54.244;10.074;2023-02-17T00:42:44;100910.25;;;9.25;100.00
18504;BME280;9381;54.244;10.074;2023-02-17T00:47:45;100910.63;;;9.16;100.00
18504;BME280;9381;54.244;10.074;2023-02-17T00:52:45;100900.69;;;9.23;100.00
18504;BME280;9381;54.244;10.074;2023-02-17T00:57:45;100887.81;;;9.25;100.00
18504;BME280;9381;54.244;10.074;2023-02-17T01:02:46;100880.53;;;9.12;100.00
18504;BME280;9381;54.244;10.074;2023-02-17T01:07:46;100879.09;;;9.16;100.00
18504;BME280;9381;54.244;10.074;2023-02-17T01:12:47;100879.13;;;9.29;100.00
18504;BME280;9381;54.244;10.074;2023-02-17T01:17:47;100875.78;;;9.21;100.00
18504;BME280;9381;54.244;10.074;2023-02-17T01:22:47;100869.56;;;9.20;100.00
18504;BME280;9381;54.244;10.074;2023-02-17T01:27:48;100865.44;;;9.31;100.00
18504;BME280;9381;54.244;10.074;2023-02-17T01:32:48;100858.19;;;9.38;100.00
18504;BME280;9381;54.244;10.074;2023-02-17T01:37:49;100841.75;;;9.33;100.00
18504;BME280;9381;54.244;10.074;2023-02-17T01:42:49;100828.06;;;9.28;100.00
18504;BME280;9381;54.244;10.074;2023-02-17T01:47:54;100811.06;;;9.47;100.00
18504;BME280;9381;54.244;10.074;2023-02-17T01:52:56;100803.56;;;9.55;100.00
18504;BME280;9381;54.244;10.074;2023-02-17T01:57:58;100794.22;;;9.45;100.00
18504;BME280;9381;54.244;10.074;2023-02-17T02:03:01;100802.75;;;9.55;100.00
18504;BME280;9381;54.244;10.074;2023-02-17T02:08:04;100778.44;;;9.61;100.00
18504;BME280;9381;54.244;10.074;2023-02-17T02:13:05;100775.50;;;9.63;100.00
18504;BME280;9381;54.244;10.074;2023-02-17T02:23:51;100766.19;;;9.59;100.00
18504;BME280;9381;54.244;10.074;2023-02-17T02:28:59;100750.78;;;9.72;100.00
18504;BME280;9381;54.244;10.074;2023-02-17T02:34:08;100733.16;;;9.63;100.00
18504;BME280;9381;54.244;10.074;2023-02-17T02:39:19;100718.41;;;9.66;100.00
18504;BME280;9381;54.244;10.074;2023-02-17T02:44:21;100720.47;;;9.64;100.00
18504;BME280;9381;54.244;10.074;2023-02-17T02:49:21;100705.50;;;9.68;100.00
18504;BME280;9381;54.244;10.074;2023-02-17T02:54:45;100706.94;;;9.77;100.00
18504;BME280;9381;54.244;10.074;2023-02-17T03:00:21;100703.41;;;9.83;100.00
18504;BME280;9381;54.244;10.074;2023-02-17T03:10:44;100695.44;;;10.07;100.00
18504;BME280;9381;54.244;10.074;2023-02-17T03:15:46;100694.44;;;9.95;100.00
18504;BME280;9381;54.244;10.074;2023-02-17T03:20:50;100694.19;;;9.97;100.00
18504;BME280;9381;54.244;10.074;2023-02-17T03:25:52;100687.78;;;9.91;100.00
18504;BME280;9381;54.244;10.074;2023-02-17T03:30:52;100705.22;;;10.02;100.00
18504;BME280;9381;54.244;10.074;2023-02-17T03:35:53;100694.19;;;9.97;100.00
18504;BME280;9381;54.244;10.074;2023-02-17T03:40:53;100677.31;;;10.21;100.00
18504;BME280;9381;54.244;10.074;2023-02-17T03:45:53;100683.59;;;10.02;100.00
18504;BME280;9381;54.244;10.074;2023-02-17T03:50:53;100677.09;;;10.16;100.00
18504;BME280;9381;54.244;10.074;2023-02-17T03:55:54;100666.66;;;10.26;100.00
18504;BME280;9381;54.244;10.074;2023-02-17T04:00:54;100659.22;;;10.15;100.00
18504;BME280;9381;54.244;10.074;2023-02-17T04:05:54;100663.59;;;10.22;100.00
18504;BME280;9381;54.244;10.074;2023-02-17T04:10:57;100657.50;;;10.27;100.00
18504;BME280;9381;54.244;10.074;2023-02-17T04:15:58;100657.88;;;10.30;100.00
18504;BME280;9381;54.244;10.074;2023-02-17T04:21:00;100636.31;;;10.24;100.00
18504;BME280;9381;54.244;10.074;2023-02-17T04:26:01;100637.91;;;10.38;100.00
18504;BME280;9381;54.244;10.074;2023-02-17T04:31:02;100632.31;;;10.33;100.00
18504;BME280;9381;54.244;10.074;2023-02-17T04:36:03;100606.66;;;10.42;100.00
18504;BME280;9381;54.244;10.074;2023-02-17T04:41:04;100594.66;;;10.38;100.00
18504;BME280;9381;54.244;10.074;2023-02-17T04:46:05;100596.00;;;10.22;100.00
18504;BME280;9381;54.244;10.074;2023-02-17T04:51:05;100591.69;;;10.46;100.00
18504;BME280;9381;54.244;10.074;2023-02-17T04:56:06;100585.03;;;10.42;100.00
18504;BME280;9381;54.244;10.074;2023-02-17T05:01:06;100575.00;;;10.49;100.00
18504;BME280;9381;54.244;10.074;2023-02-17T05:06:06;100582.94;;;10.44;100.00
18504;BME280;9381;54.244;10.074;2023-02-17T05:11:07;100562.47;;;10.30;100.00
18504;BME280;9381;54.244;10.074;2023-02-17T05:16:08;100552.06;;;10.58;100.00
18504;BME280;9381;54.244;10.074;2023-02-17T05:21:08;100562.53;;;10.48;100.00
18504;BME280;9381;54.244;10.074;2023-02-17T05:26:09;100549.63;;;10.50;100.00
18504;BME280;9381;54.244;10.074;2023-02-17T05:31:10;100526.50;;;10.54;100.00
18504;BME280;9381;54.244;10.074;2023-02-17T05:36:11;100507.00;;;10.70;100.00
18504;BME280;9381;54.244;10.074;2023-02-17T05:41:11;100507.13;;;10.57;100.00
18504;BME280;9381;54.244;10.074;2023-02-17T05:46:12;100493.75;;;10.62;100.00
18504;BME280;9381;54.244;10.074;2023-02-17T05:51:12;100488.31;;;10.68;100.00
18504;BME280;9381;54.244;10.074;2023-02-17T05:56:16;100484.03;;;10.79;100.00
18504;BME280;9381;54.244;10.074;2023-02-17T06:01:16;100464.19;;;10.67;100.00
18504;BME280;9381;54.244;10.074;2023-02-17T06:06:17;100464.94;;;10.74;100.00
18504;BME280;9381;54.244;10.074;2023-02-17T06:11:17;100452.16;;;10.81;100.00
18504;BME280;9381;54.244;10.074;2023-02-17T06:34:58;100411.94;;;11.20;100.00
18504;BME280;9381;54.244;10.074;2023-02-17T06:39:58;100420.91;;;11.03;100.00
18504;BME280;9381;54.244;10.074;2023-02-17T06:44:59;100421.31;;;11.18;100.00
18504;BME280;9381;54.244;10.074;2023-02-17T06:50:05;100402.22;;;11.31;100.00
18504;BME280;9381;54.244;10.074;2023-02-17T06:55:07;100395.78;;;11.14;100.00
18504;BME280;9381;54.244;10.074;2023-02-17T07:00:08;100386.31;;;11.05;100.00
18504;BME280;9381;54.244;10.074;2023-02-17T07:05:08;100377.44;;;11.16;100.00
18504;BME280;9381;54.244;10.074;2023-02-17T07:10:09;100382.28;;;10.96;100.00
18504;BME280;9381;54.244;10.074;2023-02-17T07:15:09;100392.72;;;10.92;100.00
18504;BME280;9381;54.244;10.074;2023-02-17T07:20:10;100360.00;;;11.12;100.00
18504;BME280;9381;54.244;10.074;2023-02-17T07:25:10;100373.28;;;10.84;100.00
18504;BME280;9381;54.244;10.074;2023-02-17T07:30:11;100359.44;;;10.92;100.00
18504;BME280;9381;54.244;10.074;2023-02-17T07:35:12;100364.09;;;10.85;100.00
18504;BME280;9381;54.244;10.074;2023-02-17T07:40:12;100334.47;;;10.90;100.00
18504;BME280;9381;54.244;10.074;2023-02-17T07:45:12;100338.88;;;11.02;100.00
18504;BME280;9381;54.244;10.074;2023-02-17T07:50:13;100307.69;;;11.00;100.00
18504;BME280;9381;54.244;10.074;2023-02-17T07:55:13;100317.13;;;11.09;100.00
18504;BME280;9381;54.244;10.074;2023-02-17T08:00:14;100306.22;;;10.86;100.00
18504;BME280;9381;54.244;10.074;2023-02-17T08:05:15;100268.91;;;11.06;100.00
18504;BME280;9381;54.244;10.074;2023-02-17T08:10:15;100280.19;;;11.03;100.00
18504;BME280;9381;54.244;10.074;2023-02-17T08:15:34;100281.38;;;11.07;100.00
18504;BME280;9381;54.244;10.074;2023-02-17T08:20:35;100258.81;;;11.13;100.00
18504;BME280;9381;54.244;10.074;2023-02-17T08:25:35;100246.41;;;10.94;100.00
18504;BME280;9381;54.244;10.074;2023-02-17T08:30:36;100232.28;;;11.03;100.00
18504;BME280;9381;54.244;10.074;2023-02-17T08:35:37;100216.47;;;10.77;100.00
18504;BME280;9381;54.244;10.074;2023-02-17T08:40:38;100223.81;;;11.00;100.00
18504;BME280;9381;54.244;10.074;2023-02-17T08:45:39;100221.84;;;11.07;100.00
18504;BME280;9381;54.244;10.074;2023-02-17T08:50:39;100190.75;;;10.98;100.00
18504;BME280;9381;54.244;10.074;2023-02-17T08:55:41;100195.56;;;10.96;100.00
18504;BME280;9381;54.244;10.074;2023-02-17T09:00:42;100205.81;;;10.94;100.00
18504;BME280;9381;54.244;10.074;2023-02-17T09:05:42;100221.38;;;11.10;100.00
18504;BME280;9381;54.244;10.074;2023-02-17T09:10:43;100251.91;;;10.99;100.00
18504;BME280;9381;54.244;10.074;2023-02-17T09:15:43;100230.19;;;11.05;100.00
18504;BME280;9381;54.244;10.074;2023-02-17T09:20:44;100221.03;;;11.06;100.00
18504;BME280;9381;54.244;10.074;2023-02-17T09:25:44;100211.41;;;11.22;100.00
18504;BME280;9381;54.244;10.074;2023-02-17T09:30:45;100178.53;;;11.07;100.00
18504;BME280;9381;54.244;10.074;2023-02-17T09:35:45;100164.88;;;11.02;100.00
18504;BME280;9381;54.244;10.074;2023-02-17T09:40:48;100166.06;;;11.06;100.00
18504;BME280;9381;54.244;10.074;2023-02-17T09:45:51;100154.06;;;11.25;100.00
18504;BME280;9381;54.244;10.074;2023-02-17T09:55:57;100154.66;;;11.15;100.00
18504;BME280;9381;54.244;10.074;2023-02-17T10:01:00;100137.84;;;11.25;100.00
18504;BME280;9381;54.244;10.074;2023-02-17T10:11:18;100150.06;;;11.16;100.00
18504;BME280;9381;54.244;10.074;2023-02-17T10:16:32;100144.69;;;11.39;100.00
18504;BME280;9381;54.244;10.074;2023-02-17T10:21:45;100153.03;;;11.14;100.00
18504;BME280;9381;54.244;10.074;2023-02-17T10:27:03;100136.91;;;11.31;100.00
18504;BME280;9381;54.244;10.074;2023-02-17T10:32:22;100141.47;;;11.30;100.00
18504;BME280;9381;54.244;10.074;2023-02-17T10:37:28;100135.50;;;11.40;100.00
18504;BME280;9381;54.244;10.074;2023-02-17T10:42:35;100126.53;;;11.51;100.00
18504;BME280;9381;54.244;10.074;2023-02-17T10:47:38;100133.84;;;11.39;100.00
18504;BME280;9381;54.244;10.074;2023-02-17T10:52:40;100129.00;;;11.41;100.00
18504;BME280;9381;54.244;10.074;2023-02-17T10:57:41;100129.97;;;11.69;100.00
18504;BME280;9381;54.244;10.074;2023-02-17T11:02:45;100130.78;;;11.58;100.00
18504;BME280;9381;54.244;10.074;2023-02-17T11:07:45;100125.59;;;11.57;100.00
18504;BME280;9381;54.244;10.074;2023-02-17T11:12:46;100123.28;;;11.60;100.00
18504;BME280;9381;54.244;10.074;2023-02-17T11:17:49;100112.03;;;11.79;100.00
18504;BME280;9381;54.244;10.074;2023-02-17T11:23:01;100096.13;;;11.71;100.00
18504;BME280;9381;54.244;10.074;2023-02-17T11:28:09;100103.00;;;11.63;100.00
18504;BME280;9381;54.244;10.074;2023-02-17T11:33:15;100088.84;;;11.72;100.00
18504;BME280;9381;54.244;10.074;2023-02-17T11:38:23;100087.56;;;11.63;100.00
18504;BME280;9381;54.244;10.074;2023-02-17T11:43:25;100097.03;;;11.88;100.00
18504;BME280;9381;54.244;10.074;2023-02-17T11:49:08;100082.38;;;11.73;100.00
18504;BME280;9381;54.244;10.074;2023-02-17T11:54:35;100095.47;;;11.65;100.00
18504;BME280;9381;54.244;10.074;2023-02-17T12:20:58;100060.88;;;11.94;100.00
18504;BME280;9381;54.244;10.074;2023-02-17T12:26:18;100065.28;;;11.72;100.00
18504;BME280;9381;54.244;10.074;2023-02-17T12:31:55;100089.72;;;11.61;100.00
18504;BME280;9381;54.244;10.074;2023-02-17T12:36:58;100062.97;;;11.65;100.00
18504;BME280;9381;54.244;10.074;2023-02-17T12:42:06;100055.03;;;11.74;100.00
18504;BME280;9381;54.244;10.074;2023-02-17T12:47:22;100057.38;;;11.82;100.00
18504;BME280;9381;54.244;10.074;2023-02-17T12:52:27;100061.06;;;12.04;100.00
18504;BME280;9381;54.244;10.074;2023-02-17T12:57:45;100065.19;;;11.68;100.00
18504;BME280;9381;54.244;10.074;2023-02-17T13:02:47;100050.91;;;11.83;100.00
18504;BME280;9381;54.244;10.074;2023-02-17T13:07:55;100082.84;;;11.70;100.00
18504;BME280;9381;54.244;10.074;2023-02-17T13:13:02;100068.66;;;11.91;100.00
18504;BME280;9381;54.244;10.074;2023-02-17T13:23:24;100074.66;;;11.81;100.00
18504;BME280;9381;54.244;10.074;2023-02-17T13:28:35;100065.22;;;11.95;100.00
18504;BME280;9381;54.244;10.074;2023-02-17T13:33:48;100078.00;;;12.11;100.00
18504;BME280;9381;54.244;10.074;2023-02-17T13:38:59;100103.53;;;11.87;100.00
18504;BME280;9381;54.244;10.074;2023-02-17T13:49:26;100079.63;;;11.84;100.00
18504;BME280;9381;54.244;10.074;2023-02-17T13:54:27;100074.41;;;11.94;100.00
18504;BME280;9381;54.244;10.074;2023-02-17T13:59:27;100069.00;;;12.22;100.00
18504;BME280;9381;54.244;10.074;2023-02-17T14:04:31;100066.59;;;12.09;100.00
18504;BME280;9381;54.244;10.074;2023-02-17T14:09:33;100081.28;;;11.85;100.00
18504;BME280;9381;54.244;10.074;2023-02-17T14:14:36;100080.34;;;12.19;100.00
18504;BME280;9381;54.244;10.074;2023-02-17T14:19:47;100070.53;;;11.90;100.00
18504;BME280;9381;54.244;10.074;2023-02-17T14:25:04;100094.53;;;11.98;100.00
18504;BME280;9381;54.244;10.074;2023-02-17T14:30:05;100104.63;;;11.75;100.00
18504;BME280;9381;54.244;10.074;2023-02-17T14:35:23;100097.53;;;11.85;100.00
18504;BME280;9381;54.244;10.074;2023-02-17T14:40:24;100095.78;;;11.68;100.00
18504;BME280;9381;54.244;10.074;2023-02-17T14:45:24;100116.44;;;11.69;100.00
18504;BME280;9381;54.244;10.074;2023-02-17T14:50:25;100111.25;;;11.68;100.00
18504;BME280;9381;54.244;10.074;2023-02-17T14:55:35;100139.03;;;11.74;100.00
18504;BME280;9381;54.244;10.074;2023-02-17T15:00:37;100129.63;;;11.66;99.63
18504;BME280;9381;54.244;10.074;2023-02-17T15:05:38;100167.25;;;11.33;94.68
18504;BME280;9381;54.244;10.074;2023-02-17T15:10:39;100165.63;;;11.32;95.11
18504;BME280;9381;54.244;10.074;2023-02-17T15:15:40;100182.81;;;11.49;94.06
18504;BME280;9381;54.244;10.074;2023-02-17T15:20:46;100180.09;;;11.37;93.84
18504;BME280;9381;54.244;10.074;2023-02-17T15:25:47;100222.00;;;11.23;92.74
18504;BME280;9381;54.244;10.074;2023-02-17T15:30:51;100208.44;;;11.12;91.44
18504;BME280;9381;54.244;10.074;2023-02-17T15:35:53;100221.88;;;11.30;91.63
18504;BME280;9381;54.244;10.074;2023-02-17T15:40:54;100226.13;;;10.85;92.12
18504;BME280;9381;54.244;10.074;2023-02-17T15:45:57;100240.47;;;10.85;91.74
18504;BME280;9381;54.244;10.074;2023-02-17T15:50:58;100235.84;;;10.74;93.10
18504;BME280;9381;54.244;10.074;2023-02-17T15:55:58;100260.94;;;10.81;93.39
18504;BME280;9381;54.244;10.074;2023-02-17T16:01:01;100259.81;;;10.71;93.94
18504;BME280;9381;54.244;10.074;2023-02-17T16:06:03;100290.25;;;10.48;93.24
18504;BME280;9381;54.244;10.074;2023-02-17T16:11:03;100287.63;;;10.60;94.13
18504;BME280;9381;54.244;10.074;2023-02-17T16:16:08;100298.47;;;10.24;94.26
18504;BME280;9381;54.244;10.074;2023-02-17T16:21:14;100288.53;;;10.36;94.85
18504;BME280;9381;54.244;10.074;2023-02-17T16:31:23;100316.88;;;9.91;94.91
18504;BME280;9381;54.244;10.074;2023-02-17T16:36:29;100338.75;;;9.83;94.82
18504;BME280;9381;54.244;10.074;2023-02-17T16:41:30;100353.84;;;9.90;94.69
18504;BME280;9381;54.244;10.074;2023-02-17T16:46:33;100335.41;;;9.81;94.92
18504;BME280;9381;54.244;10.074;2023-02-17T16:51:35;100325.25;;;9.83;95.29
18504;BME280;9381;54.244;10.074;2023-02-17T16:56:41;100322.88;;;9.93;95.57
18504;BME280;9381;54.244;10.074;2023-02-17T17:01:42;100345.56;;;9.85;95.60
18504;BME280;9381;54.244;10.074;2023-02-17T17:06:45;100370.19;;;9.71;95.94
18504;BME280;9381;54.244;10.074;2023-02-17T17:11:45;100364.25;;;9.87;95.99
18504;BME280;9381;54.244;10.074;2023-02-17T17:16:57;100360.63;;;9.75;95.94
18504;BME280;9381;54.244;10.074;2023-02-17T17:21:59;100390.16;;;9.70;95.71
18504;BME280;9381;54.244;10.074;2023-02-17T17:27:00;100365.25;;;9.68;96.26
18504;BME280;9381;54.244;10.074;2023-02-17T17:32:00;100390.13;;;9.45;95.39
18504;BME280;9381;54.244;10.074;2023-02-17T17:37:00;100391.84;;;9.64;94.98
18504;BME280;9381;54.244;10.074;2023-02-17T17:42:01;100401.13;;;9.75;96.11
18504;BME280;9381;54.244;10.074;2023-02-17T17:47:02;100412.50;;;9.83;95.00
18504;BME280;9381;54.244;10.074;2023-02-17T17:52:03;100411.50;;;9.47;94.90
18504;BME280;9381;54.244;10.074;2023-02-17T17:57:03;100438.06;;;9.50;92.76
18504;BME280;9381;54.244;10.074;2023-02-17T18:02:04;100437.81;;;9.58;92.70
18504;BME280;9381;54.244;10.074;2023-02-17T18:07:05;100456.09;;;9.56;92.82
18504;BME280;9381;54.244;10.074;2023-02-17T18:12:10;100473.34;;;9.55;93.83
18504;BME280;9381;54.244;10.074;2023-02-17T18:17:13;100486.66;;;9.50;93.84
18504;BME280;9381;54.244;10.074;2023-02-17T18:22:13;100472.16;;;9.44;93.41
18504;BME280;9381;54.244;10.074;2023-02-17T18:27:14;100484.59;;;9.45;94.33
18504;BME280;9381;54.244;10.074;2023-02-17T18:32:14;100501.63;;;9.46;97.03
18504;BME280;9381;54.244;10.074;2023-02-17T18:37:15;100511.28;;;9.22;96.03
18504;BME280;9381;54.244;10.074;2023-02-17T18:42:15;100505.66;;;9.24;96.70
18504;BME280;9381;54.244;10.074;2023-02-17T18:47:16;100500.41;;;9.42;97.35
18504;BME280;9381;54.244;10.074;2023-02-17T18:52:16;100528.84;;;9.44;95.57
18504;BME280;9381;54.244;10.074;2023-02-17T18:57:17;100524.31;;;9.32;95.37
18504;BME280;9381;54.244;10.074;2023-02-17T19:02:17;100537.94;;;9.50;94.50
18504;BME280;9381;54.244;10.074;2023-02-17T19:07:18;100546.72;;;9.39;94.51
18504;BME280;9381;54.244;10.074;2023-02-17T19:12:19;100552.09;;;9.45;93.66
18504;BME280;9381;54.244;10.074;2023-02-17T19:17:20;100553.47;;;9.61;93.58
18504;BME280;9381;54.244;10.074;2023-02-17T19:22:21;100546.25;;;9.48;93.44
18504;BME280;9381;54.244;10.074;2023-02-17T19:27:21;100586.38;;;9.32;92.47
18504;BME280;9381;54.244;10.074;2023-02-17T19:32:22;100563.41;;;9.03;91.85
18504;BME280;9381;54.244;10.074;2023-02-17T19:37:22;100595.31;;;9.26;91.60
18504;BME280;9381;54.244;10.074;2023-02-17T19:42:22;100616.34;;;9.11;91.65
18504;BME280;9381;54.244;10.074;2023-02-17T19:47:23;100632.28;;;9.12;90.11
18504;BME280;9381;54.244;10.074;2023-02-17T19:52:23;100635.00;;;8.99;90.13
18504;BME280;9381;54.244;10.074;2023-02-17T19:57:24;100636.06;;;8.92;89.82
18504;BME280;9381;54.244;10.074;2023-02-17T20:02:24;100641.25;;;8.87;89.56
18504;BME280;9381;54.244;10.074;2023-02-17T20:07:25;100658.69;;;8.97;89.70
18504;BME280;9381;54.244;10.074;2023-02-17T20:12:25;100636.47;;;9.02;89.26
18504;BME280;9381;54.244;10.074;2023-02-17T20:17:25;100684.00;;;9.03;89.29
18504;BME280;9381;54.244;10.074;2023-02-17T20:22:27;100682.75;;;9.12;89.21
18504;BME280;9381;54.244;10.074;2023-02-17T20:27:27;100690.81;;;8.86;89.66
18504;BME280;9381;54.244;10.074;2023-02-17T20:32:28;100674.25;;;9.02;90.71
18504;BME280;9381;54.244;10.074;2023-02-17T20:37:28;100712.84;;;9.09;92.20
18504;BME280;9381;54.244;10.074;2023-02-17T20:42:28;100723.84;;;9.14;92.62
18504;BME280;9381;54.244;10.074;2023-02-17T20:47:29;100745.84;;;9.04;93.75
18504;BME280;9381;54.244;10.074;2023-02-17T20:52:29;100727.34;;;9.01;94.03
18504;BME280;9381;54.244;10.074;2023-02-17T20:57:30;100740.63;;;8.90;93.25
18504;BME280;9381;54.244;10.074;2023-02-17T21:02:30;100741.69;;;9.15;93.22
18504;BME280;9381;54.244;10.074;2023-02-17T21:07:31;100742.94;;;9.19;91.75
18504;BME280;9381;54.244;10.074;2023-02-17T21:12:31;100730.47;;;9.31;90.46
18504;BME280;9381;54.244;10.074;2023-02-17T21:17:31;100764.72;;;9.17;90.61
18504;BME280;9381;54.244;10.074;2023-02-17T21:22:32;100786.50;;;9.16;91.42
18504;BME280;9381;54.244;10.074;2023-02-17T21:27:33;100783.38;;;9.06;91.84
18504;BME280;9381;54.244;10.074;2023-02-17T21:32:33;100786.50;;;9.03;92.92
18504;BME280;9381;54.244;10.074;2023-02-17T21:37:34;100801.41;;;8.86;92.72
18504;BME280;9381;54.244;10.074;2023-02-17T21:42:38;100812.81;;;8.88;92.48
18504;BME280;9381;54.244;10.074;2023-02-17T21:47:57;100819.06;;;9.01;92.74
18504;BME280;9381;54.244;10.074;2023-02-17T21:52:59;100815.09;;;8.84;93.33
18504;BME280;9381;54.244;10.074;2023-02-17T21:57:59;100812.00;;;8.81;92.92
18504;BME280;9381;54.244;10.074;2023-02-17T22:02:59;100829.22;;;8.93;92.45
18504;BME280;9381;54.244;10.074;2023-02-17T22:08:00;100830.88;;;8.87;93.27
18504;BME280;9381;54.244;10.074;2023-02-17T22:13:00;100874.91;;;8.94;93.92
18504;BME280;9381;54.244;10.074;2023-02-17T22:18:01;100856.38;;;8.85;93.22
18504;BME280;9381;54.244;10.074;2023-02-17T22:23:01;100857.00;;;8.87;93.78
18504;BME280;9381;54.244;10.074;2023-02-17T22:28:02;100847.06;;;8.94;93.65
18504;BME280;9381;54.244;10.074;2023-02-17T22:33:02;100865.28;;;8.79;93.09
18504;BME280;9381;54.244;10.074;2023-02-17T22:38:03;100863.25;;;8.87;92.16
18504;BME280;9381;54.244;10.074;2023-02-17T22:43:03;100854.56;;;8.92;92.79
18504;BME280;9381;54.244;10.074;2023-02-17T22:48:04;100868.06;;;8.98;91.46
18504;BME280;9381;54.244;10.074;2023-02-17T22:53:04;100872.75;;;8.83;92.43
18504;BME280;9381;54.244;10.074;2023-02-17T22:58:05;100875.59;;;8.69;92.38
18504;BME280;9381;54.244;10.074;2023-02-17T23:03:05;100875.22;;;8.72;94.30
18504;BME280;9381;54.244;10.074;2023-02-17T23:08:05;100885.56;;;8.68;94.65
18504;BME280;9381;54.244;10.074;2023-02-17T23:13:06;100866.47;;;8.70;95.01
18504;BME280;9381;54.244;10.074;2023-02-17T23:18:14;100865.25;;;8.72;94.40
18504;BME280;9381;54.244;10.074;2023-02-17T23:23:15;100861.53;;;8.73;93.86
18504;BME280;9381;54.244;10.074;2023-02-17T23:28:20;100883.09;;;8.73;92.96
18504;BME280;9381;54.244;10.074;2023-02-17T23:33:22;100877.69;;;8.73;92.56
18504;BME280;9381;54.244;10.074;2023-02-17T23:38:22;100873.06;;;8.61;92.47
18504;BME280;9381;54.244;10.074;2023-02-17T23:43:23;100893.31;;;8.44;92.67
18504;BME280;9381;54.244;10.074;2023-02-17T23:48:24;100894.16;;;8.45;93.09
18504;BME280;9381;54.244;10.074;2023-02-17T23:53:24;100897.75;;;8.58;93.97
18504;BME280;9381;54.244;10.074;2023-02-17T23:58:25;100899.97;;;8.48;92.96
